This is the latest recevied weather packets stored in our database for station/object KD2FKI. If no packets are shown the sender has not sent any weather packets the latest 10 day(s).
| Time | Temp. | Humidity | Pressure | Rain* | Wind** | Luminosity | Snow |
|---|---|---|---|---|---|---|---|
| 1788116737 | 34.44° C | 50% | - | 0 mm | - | - | - |
| 1788116134 | 35° C | 50% | - | 0 mm | - | - | - |
| 1788115532 | 33.89° C | 51% | - | 0 mm | - | - | - |
| 1788114930 | 34.44° C | 50% | - | 0 mm | - | - | - |
| 1788114328 | 35° C | 51% | - | 0 mm | - | - | - |
| 1788113725 | 33.89° C | 53% | - | 0 mm | - | - | - |
| 1788113125 | 32.78° C | 56% | - | 0 mm | - | - | - |
| 1788112521 | 32.22° C | 60% | - | 0 mm | - | - | - |
| 1788111918 | 31.11° C | 63% | - | 0 mm | - | - | - |
| 1788111335 | 29.44° C | 69% | - | 0 mm | - | - | - |
| 1788110732 | 28.89° C | 75% | - | 0 mm | - | - | - |
| 1788110130 | 27.22° C | 81% | - | 0 mm | - | - | - |
| 1788109528 | 25.56° C | 82% | - | 0 mm | - | - | - |
| 1788108926 | 26.11° C | 80% | - | 0 mm | - | - | - |
| 1788108326 | 27.22° C | 77% | - | 0 mm | - | - | - |
| 1788107724 | 27.78° C | 72% | - | 0 mm | - | - | - |
| 1788107119 | 28.89° C | 68% | - | 0 mm | - | - | - |
| 1788106538 | 30° C | 65% | - | 0 mm | - | - | - |
| 1788105932 | 29.44° C | 67% | - | 0 mm | - | - | - |
| 1788105330 | 28.89° C | 70% | - | 0 mm | - | - | - |
| 1788104730 | 27.22° C | 75% | - | 0 mm | - | - | - |
| 1788104125 | 26.67° C | 75% | - | 0 mm | - | - | - |
| 1788103524 | 26.67° C | 75% | - | 0 mm | - | - | - |
| 1788102921 | 26.67° C | 75% | - | 0 mm | - | - | - |
| 1788102319 | 26.11° C | 77% | - | 0 mm | - | - | - |
* Rain latest hour (hover to see other rain measurements)
** Current wind speed in m/s (hover to see current wind gust speed)